sensor_id;sensor_type;location;lat;lon;timestamp;P1;durP1;ratioP1;P2;durP2;ratioP2
73684;SDS011;61985;51.070;14.064;2023-05-06T00:00:46;10.90;;;5.72;;
73684;SDS011;61985;51.070;14.064;2023-05-06T00:03:12;11.00;;;6.03;;
73684;SDS011;61985;51.070;14.064;2023-05-06T00:05:37;10.23;;;5.80;;
73684;SDS011;61985;51.070;14.064;2023-05-06T00:08:03;9.65;;;5.90;;
73684;SDS011;61985;51.070;14.064;2023-05-06T00:10:29;12.73;;;5.40;;
73684;SDS011;61985;51.070;14.064;2023-05-06T00:12:54;10.30;;;5.78;;
73684;SDS011;61985;51.070;14.064;2023-05-06T00:15:20;10.77;;;6.55;;
73684;SDS011;61985;51.070;14.064;2023-05-06T00:17:45;10.70;;;6.15;;
73684;SDS011;61985;51.070;14.064;2023-05-06T00:20:10;14.55;;;6.75;;
73684;SDS011;61985;51.070;14.064;2023-05-06T00:22:36;12.98;;;6.97;;
73684;SDS011;61985;51.070;14.064;2023-05-06T00:25:02;13.32;;;7.30;;
73684;SDS011;61985;51.070;14.064;2023-05-06T00:27:28;10.30;;;6.82;;
73684;SDS011;61985;51.070;14.064;2023-05-06T00:29:53;11.55;;;7.07;;
73684;SDS011;61985;51.070;14.064;2023-05-06T00:32:18;10.60;;;6.40;;
73684;SDS011;61985;51.070;14.064;2023-05-06T00:34:44;11.32;;;6.93;;
73684;SDS011;61985;51.070;14.064;2023-05-06T00:37:10;11.57;;;6.90;;
73684;SDS011;61985;51.070;14.064;2023-05-06T00:39:35;12.23;;;7.20;;
73684;SDS011;61985;51.070;14.064;2023-05-06T00:42:00;14.32;;;6.75;;
73684;SDS011;61985;51.070;14.064;2023-05-06T00:44:26;11.05;;;6.90;;
73684;SDS011;61985;51.070;14.064;2023-05-06T00:46:55;12.63;;;7.00;;
73684;SDS011;61985;51.070;14.064;2023-05-06T00:49:22;11.93;;;6.78;;
73684;SDS011;61985;51.070;14.064;2023-05-06T00:51:47;13.75;;;6.57;;
73684;SDS011;61985;51.070;14.064;2023-05-06T00:54:14;11.68;;;7.15;;
73684;SDS011;61985;51.070;14.064;2023-05-06T00:56:40;15.85;;;6.70;;
73684;SDS011;61985;51.070;14.064;2023-05-06T00:59:06;11.40;;;6.53;;
73684;SDS011;61985;51.070;14.064;2023-05-06T01:01:31;12.63;;;6.32;;
73684;SDS011;61985;51.070;14.064;2023-05-06T01:03:57;11.40;;;6.32;;
73684;SDS011;61985;51.070;14.064;2023-05-06T01:09:09;14.38;;;6.60;;
73684;SDS011;61985;51.070;14.064;2023-05-06T01:11:46;9.23;;;5.90;;
73684;SDS011;61985;51.070;14.064;2023-05-06T01:17:34;11.90;;;7.20;;
73684;SDS011;61985;51.070;14.064;2023-05-06T01:20:02;13.80;;;7.55;;
73684;SDS011;61985;51.070;14.064;2023-05-06T01:22:30;10.60;;;7.22;;
73684;SDS011;61985;51.070;14.064;2023-05-06T01:25:00;11.43;;;6.72;;
73684;SDS011;61985;51.070;14.064;2023-05-06T01:27:25;12.77;;;6.72;;
73684;SDS011;61985;51.070;14.064;2023-05-06T01:29:51;12.57;;;6.65;;
73684;SDS011;61985;51.070;14.064;2023-05-06T01:37:20;11.18;;;6.25;;
73684;SDS011;61985;51.070;14.064;2023-05-06T01:39:49;10.10;;;6.07;;
73684;SDS011;61985;51.070;14.064;2023-05-06T01:42:19;9.88;;;6.22;;
73684;SDS011;61985;51.070;14.064;2023-05-06T01:44:47;9.32;;;6.15;;
73684;SDS011;61985;51.070;14.064;2023-05-06T01:47:13;13.32;;;6.07;;
73684;SDS011;61985;51.070;14.064;2023-05-06T01:49:39;10.55;;;5.78;;
73684;SDS011;61985;51.070;14.064;2023-05-06T01:52:05;12.70;;;6.43;;
73684;SDS011;61985;51.070;14.064;2023-05-06T01:54:30;9.90;;;6.32;;
73684;SDS011;61985;51.070;14.064;2023-05-06T01:56:55;10.48;;;6.20;;
73684;SDS011;61985;51.070;14.064;2023-05-06T01:59:21;9.50;;;6.35;;
73684;SDS011;61985;51.070;14.064;2023-05-06T02:01:46;10.23;;;6.57;;
73684;SDS011;61985;51.070;14.064;2023-05-06T02:04:11;9.60;;;6.35;;
73684;SDS011;61985;51.070;14.064;2023-05-06T02:06:37;13.05;;;6.43;;
73684;SDS011;61985;51.070;14.064;2023-05-06T02:09:02;11.20;;;6.88;;
73684;SDS011;61985;51.070;14.064;2023-05-06T02:11:28;9.55;;;6.13;;
73684;SDS011;61985;51.070;14.064;2023-05-06T02:13:53;10.40;;;6.13;;
73684;SDS011;61985;51.070;14.064;2023-05-06T02:16:19;10.05;;;6.32;;
73684;SDS011;61985;51.070;14.064;2023-05-06T02:18:45;14.60;;;6.63;;
73684;SDS011;61985;51.070;14.064;2023-05-06T02:21:11;12.05;;;6.97;;
73684;SDS011;61985;51.070;14.064;2023-05-06T02:23:36;14.02;;;7.07;;
73684;SDS011;61985;51.070;14.064;2023-05-06T02:26:02;13.80;;;6.45;;
73684;SDS011;61985;51.070;14.064;2023-05-06T02:28:28;8.93;;;5.65;;
73684;SDS011;61985;51.070;14.064;2023-05-06T02:30:54;11.27;;;5.70;;
73684;SDS011;61985;51.070;14.064;2023-05-06T02:33:20;12.82;;;6.07;;
73684;SDS011;61985;51.070;14.064;2023-05-06T02:35:46;9.52;;;5.30;;
73684;SDS011;61985;51.070;14.064;2023-05-06T02:38:11;12.15;;;6.47;;
73684;SDS011;61985;51.070;14.064;2023-05-06T02:40:36;10.13;;;5.85;;
73684;SDS011;61985;51.070;14.064;2023-05-06T02:43:02;8.88;;;6.00;;
73684;SDS011;61985;51.070;14.064;2023-05-06T02:45:27;11.48;;;6.72;;
73684;SDS011;61985;51.070;14.064;2023-05-06T02:47:52;11.38;;;6.78;;
73684;SDS011;61985;51.070;14.064;2023-05-06T02:50:18;10.68;;;6.25;;
73684;SDS011;61985;51.070;14.064;2023-05-06T02:52:43;13.93;;;6.47;;
73684;SDS011;61985;51.070;14.064;2023-05-06T02:55:08;9.38;;;5.65;;
73684;SDS011;61985;51.070;14.064;2023-05-06T02:57:34;10.85;;;6.13;;
73684;SDS011;61985;51.070;14.064;2023-05-06T02:59:59;9.50;;;5.93;;
73684;SDS011;61985;51.070;14.064;2023-05-06T03:02:24;8.32;;;5.70;;
73684;SDS011;61985;51.070;14.064;2023-05-06T03:04:50;9.63;;;6.13;;
73684;SDS011;61985;51.070;14.064;2023-05-06T03:07:15;9.80;;;6.22;;
73684;SDS011;61985;51.070;14.064;2023-05-06T03:09:41;8.63;;;5.50;;
73684;SDS011;61985;51.070;14.064;2023-05-06T03:12:06;10.70;;;6.65;;
73684;SDS011;61985;51.070;14.064;2023-05-06T03:14:31;9.65;;;6.28;;
73684;SDS011;61985;51.070;14.064;2023-05-06T03:16:57;12.00;;;5.68;;
73684;SDS011;61985;51.070;14.064;2023-05-06T03:19:22;10.63;;;6.38;;
73684;SDS011;61985;51.070;14.064;2023-05-06T03:21:47;10.82;;;6.03;;
73684;SDS011;61985;51.070;14.064;2023-05-06T03:24:13;12.30;;;5.45;;
73684;SDS011;61985;51.070;14.064;2023-05-06T03:26:38;10.85;;;6.20;;
73684;SDS011;61985;51.070;14.064;2023-05-06T03:29:04;10.13;;;6.00;;
73684;SDS011;61985;51.070;14.064;2023-05-06T03:31:29;11.40;;;6.18;;
73684;SDS011;61985;51.070;14.064;2023-05-06T03:33:54;9.65;;;6.10;;
73684;SDS011;61985;51.070;14.064;2023-05-06T03:36:19;9.43;;;6.60;;
73684;SDS011;61985;51.070;14.064;2023-05-06T03:38:47;11.07;;;6.28;;
73684;SDS011;61985;51.070;14.064;2023-05-06T03:41:13;9.25;;;6.40;;
73684;SDS011;61985;51.070;14.064;2023-05-06T03:43:38;10.80;;;6.22;;
73684;SDS011;61985;51.070;14.064;2023-05-06T03:46:04;9.35;;;6.10;;
73684;SDS011;61985;51.070;14.064;2023-05-06T03:48:29;10.60;;;6.13;;
73684;SDS011;61985;51.070;14.064;2023-05-06T03:50:55;15.15;;;5.78;;
73684;SDS011;61985;51.070;14.064;2023-05-06T03:53:20;9.48;;;5.63;;
73684;SDS011;61985;51.070;14.064;2023-05-06T03:55:46;9.98;;;6.00;;
73684;SDS011;61985;51.070;14.064;2023-05-06T03:58:11;10.68;;;6.03;;
73684;SDS011;61985;51.070;14.064;2023-05-06T04:00:37;9.65;;;5.78;;
73684;SDS011;61985;51.070;14.064;2023-05-06T04:03:02;10.93;;;6.53;;
73684;SDS011;61985;51.070;14.064;2023-05-06T04:05:27;10.65;;;6.38;;
73684;SDS011;61985;51.070;14.064;2023-05-06T04:07:53;9.07;;;5.82;;
73684;SDS011;61985;51.070;14.064;2023-05-06T04:10:18;12.32;;;6.53;;
73684;SDS011;61985;51.070;14.064;2023-05-06T04:12:44;9.73;;;6.10;;
73684;SDS011;61985;51.070;14.064;2023-05-06T04:15:09;11.07;;;6.80;;
73684;SDS011;61985;51.070;14.064;2023-05-06T04:17:35;13.02;;;6.75;;
73684;SDS011;61985;51.070;14.064;2023-05-06T04:20:00;11.32;;;6.68;;
73684;SDS011;61985;51.070;14.064;2023-05-06T04:22:32;10.60;;;6.90;;
73684;SDS011;61985;51.070;14.064;2023-05-06T04:24:58;13.07;;;6.88;;
73684;SDS011;61985;51.070;14.064;2023-05-06T04:27:25;10.18;;;6.35;;
73684;SDS011;61985;51.070;14.064;2023-05-06T04:29:53;10.70;;;6.60;;
73684;SDS011;61985;51.070;14.064;2023-05-06T04:32:19;10.55;;;6.57;;
73684;SDS011;61985;51.070;14.064;2023-05-06T04:34:44;11.85;;;7.35;;
73684;SDS011;61985;51.070;14.064;2023-05-06T04:37:11;11.93;;;7.32;;
73684;SDS011;61985;51.070;14.064;2023-05-06T04:39:37;11.90;;;6.80;;
73684;SDS011;61985;51.070;14.064;2023-05-06T04:42:03;12.15;;;6.78;;
73684;SDS011;61985;51.070;14.064;2023-05-06T04:44:28;14.80;;;6.63;;
73684;SDS011;61985;51.070;14.064;2023-05-06T04:46:54;9.60;;;6.20;;
73684;SDS011;61985;51.070;14.064;2023-05-06T04:49:20;10.95;;;6.43;;
73684;SDS011;61985;51.070;14.064;2023-05-06T04:51:45;12.60;;;6.75;;
73684;SDS011;61985;51.070;14.064;2023-05-06T04:54:11;12.75;;;6.93;;
73684;SDS011;61985;51.070;14.064;2023-05-06T04:56:36;12.45;;;6.78;;
73684;SDS011;61985;51.070;14.064;2023-05-06T04:59:01;10.63;;;6.45;;
73684;SDS011;61985;51.070;14.064;2023-05-06T05:01:27;12.30;;;6.35;;
73684;SDS011;61985;51.070;14.064;2023-05-06T05:03:52;10.40;;;6.63;;
73684;SDS011;61985;51.070;14.064;2023-05-06T05:06:17;12.60;;;6.90;;
73684;SDS011;61985;51.070;14.064;2023-05-06T05:08:43;12.88;;;7.47;;
73684;SDS011;61985;51.070;14.064;2023-05-06T05:11:08;10.75;;;6.63;;
73684;SDS011;61985;51.070;14.064;2023-05-06T05:13:34;12.68;;;6.70;;
73684;SDS011;61985;51.070;14.064;2023-05-06T05:15:59;11.52;;;6.47;;
73684;SDS011;61985;51.070;14.064;2023-05-06T05:18:25;10.60;;;5.90;;
73684;SDS011;61985;51.070;14.064;2023-05-06T05:20:53;9.95;;;6.68;;
73684;SDS011;61985;51.070;14.064;2023-05-06T05:23:18;9.25;;;6.25;;
73684;SDS011;61985;51.070;14.064;2023-05-06T05:25:43;13.40;;;7.22;;
73684;SDS011;61985;51.070;14.064;2023-05-06T05:28:09;11.38;;;6.30;;
73684;SDS011;61985;51.070;14.064;2023-05-06T05:30:34;12.65;;;6.80;;
73684;SDS011;61985;51.070;14.064;2023-05-06T05:32:59;9.32;;;6.50;;
73684;SDS011;61985;51.070;14.064;2023-05-06T05:35:25;9.82;;;6.40;;
73684;SDS011;61985;51.070;14.064;2023-05-06T05:37:50;11.15;;;6.38;;
73684;SDS011;61985;51.070;14.064;2023-05-06T05:40:15;10.02;;;6.65;;
73684;SDS011;61985;51.070;14.064;2023-05-06T05:42:41;10.93;;;6.53;;
73684;SDS011;61985;51.070;14.064;2023-05-06T05:45:06;13.40;;;7.20;;
73684;SDS011;61985;51.070;14.064;2023-05-06T05:47:32;11.73;;;6.70;;
73684;SDS011;61985;51.070;14.064;2023-05-06T05:49:57;13.85;;;7.05;;
73684;SDS011;61985;51.070;14.064;2023-05-06T05:52:23;10.23;;;7.07;;
73684;SDS011;61985;51.070;14.064;2023-05-06T05:54:48;9.90;;;6.90;;
73684;SDS011;61985;51.070;14.064;2023-05-06T07:19:59;29.67;;;19.55;;
73684;SDS011;61985;51.070;14.064;2023-05-06T07:22:33;27.92;;;18.42;;
73684;SDS011;61985;51.070;14.064;2023-05-06T07:24:59;28.90;;;19.02;;
73684;SDS011;61985;51.070;14.064;2023-05-06T07:27:25;27.60;;;17.83;;
73684;SDS011;61985;51.070;14.064;2023-05-06T09:10:43;25.25;;;14.43;;
73684;SDS011;61985;51.070;14.064;2023-05-06T09:13:12;24.13;;;15.05;;
73684;SDS011;61985;51.070;14.064;2023-05-06T09:15:39;26.63;;;16.23;;
73684;SDS011;61985;51.070;14.064;2023-05-06T09:18:06;24.95;;;14.98;;
73684;SDS011;61985;51.070;14.064;2023-05-06T09:20:32;25.08;;;16.05;;
73684;SDS011;61985;51.070;14.064;2023-05-06T09:22:58;22.35;;;15.20;;
73684;SDS011;61985;51.070;14.064;2023-05-06T09:25:25;26.38;;;16.35;;
73684;SDS011;61985;51.070;14.064;2023-05-06T09:27:51;25.42;;;15.50;;
73684;SDS011;61985;51.070;14.064;2023-05-06T09:30:28;27.02;;;16.33;;
73684;SDS011;61985;51.070;14.064;2023-05-06T09:32:53;25.58;;;15.20;;
73684;SDS011;61985;51.070;14.064;2023-05-06T09:35:18;24.83;;;15.18;;
73684;SDS011;61985;51.070;14.064;2023-05-06T09:37:44;31.67;;;16.05;;
73684;SDS011;61985;51.070;14.064;2023-05-06T09:40:09;22.10;;;15.00;;
73684;SDS011;61985;51.070;14.064;2023-05-06T09:42:35;27.63;;;16.23;;
73684;SDS011;61985;51.070;14.064;2023-05-06T09:45:00;29.73;;;16.00;;
73684;SDS011;61985;51.070;14.064;2023-05-06T09:47:27;27.83;;;16.38;;
73684;SDS011;61985;51.070;14.064;2023-05-06T09:49:56;30.02;;;16.70;;
73684;SDS011;61985;51.070;14.064;2023-05-06T09:52:27;27.13;;;16.77;;
73684;SDS011;61985;51.070;14.064;2023-05-06T09:54:54;28.40;;;16.45;;
73684;SDS011;61985;51.070;14.064;2023-05-06T09:57:20;29.73;;;16.13;;
73684;SDS011;61985;51.070;14.064;2023-05-06T09:59:46;30.02;;;17.85;;
73684;SDS011;61985;51.070;14.064;2023-05-06T10:02:12;28.52;;;17.38;;
73684;SDS011;61985;51.070;14.064;2023-05-06T10:04:39;26.55;;;16.42;;
73684;SDS011;61985;51.070;14.064;2023-05-06T10:07:07;32.65;;;17.80;;
73684;SDS011;61985;51.070;14.064;2023-05-06T10:09:39;27.25;;;16.70;;
73684;SDS011;61985;51.070;14.064;2023-05-06T10:12:08;27.17;;;17.70;;
73684;SDS011;61985;51.070;14.064;2023-05-06T10:14:37;30.80;;;18.42;;
73684;SDS011;61985;51.070;14.064;2023-05-06T10:17:07;30.02;;;17.27;;
73684;SDS011;61985;51.070;14.064;2023-05-06T10:19:33;33.92;;;17.85;;
73684;SDS011;61985;51.070;14.064;2023-05-06T10:22:06;31.02;;;17.38;;
73684;SDS011;61985;51.070;14.064;2023-05-06T10:24:47;24.10;;;15.60;;
73684;SDS011;61985;51.070;14.064;2023-05-06T10:27:19;32.63;;;17.13;;
73684;SDS011;61985;51.070;14.064;2023-05-06T10:29:48;27.67;;;16.30;;
73684;SDS011;61985;51.070;14.064;2023-05-06T10:32:17;30.25;;;17.13;;
73684;SDS011;61985;51.070;14.064;2023-05-06T10:34:46;32.30;;;16.98;;
73684;SDS011;61985;51.070;14.064;2023-05-06T10:37:18;30.83;;;17.25;;
73684;SDS011;61985;51.070;14.064;2023-05-06T10:39:49;26.73;;;16.23;;
73684;SDS011;61985;51.070;14.064;2023-05-06T10:42:16;27.67;;;17.25;;
73684;SDS011;61985;51.070;14.064;2023-05-06T10:44:54;33.45;;;17.25;;
73684;SDS011;61985;51.070;14.064;2023-05-06T10:47:20;25.95;;;16.80;;
73684;SDS011;61985;51.070;14.064;2023-05-06T10:52:49;31.10;;;17.52;;
73684;SDS011;61985;51.070;14.064;2023-05-06T10:55:27;30.08;;;17.20;;
73684;SDS011;61985;51.070;14.064;2023-05-06T10:58:04;27.20;;;16.40;;
73684;SDS011;61985;51.070;14.064;2023-05-06T11:00:36;27.08;;;16.38;;
73684;SDS011;61985;51.070;14.064;2023-05-06T11:03:06;27.27;;;17.33;;
73684;SDS011;61985;51.070;14.064;2023-05-06T11:05:45;29.65;;;16.85;;
73684;SDS011;61985;51.070;14.064;2023-05-06T11:08:20;27.85;;;17.48;;
73684;SDS011;61985;51.070;14.064;2023-05-06T11:10:47;28.58;;;15.85;;
73684;SDS011;61985;51.070;14.064;2023-05-06T11:13:19;26.73;;;16.55;;
73684;SDS011;61985;51.070;14.064;2023-05-06T11:15:51;34.65;;;16.75;;
73684;SDS011;61985;51.070;14.064;2023-05-06T11:26:06;27.15;;;17.17;;
73684;SDS011;61985;51.070;14.064;2023-05-06T11:28:32;32.17;;;17.27;;
73684;SDS011;61985;51.070;14.064;2023-05-06T11:30:58;34.03;;;17.77;;
73684;SDS011;61985;51.070;14.064;2023-05-06T11:33:24;32.17;;;16.77;;
73684;SDS011;61985;51.070;14.064;2023-05-06T11:35:52;25.67;;;16.92;;
73684;SDS011;61985;51.070;14.064;2023-05-06T11:38:17;27.85;;;16.90;;
73684;SDS011;61985;51.070;14.064;2023-05-06T11:40:42;31.45;;;17.85;;
73684;SDS011;61985;51.070;14.064;2023-05-06T11:43:08;30.80;;;18.13;;
73684;SDS011;61985;51.070;14.064;2023-05-06T11:45:43;29.63;;;17.38;;
73684;SDS011;61985;51.070;14.064;2023-05-06T11:48:11;28.77;;;16.80;;
73684;SDS011;61985;51.070;14.064;2023-05-06T11:50:37;25.70;;;17.00;;
73684;SDS011;61985;51.070;14.064;2023-05-06T11:53:02;30.90;;;18.38;;
73684;SDS011;61985;51.070;14.064;2023-05-06T11:55:28;31.38;;;18.25;;
73684;SDS011;61985;51.070;14.064;2023-05-06T11:57:53;26.58;;;17.25;;
73684;SDS011;61985;51.070;14.064;2023-05-06T12:00:19;29.05;;;18.38;;
73684;SDS011;61985;51.070;14.064;2023-05-06T12:02:44;29.42;;;16.30;;
73684;SDS011;61985;51.070;14.064;2023-05-06T12:05:10;30.02;;;17.30;;
73684;SDS011;61985;51.070;14.064;2023-05-06T12:07:36;25.98;;;16.05;;
73684;SDS011;61985;51.070;14.064;2023-05-06T12:10:02;25.25;;;15.90;;
73684;SDS011;61985;51.070;14.064;2023-05-06T12:12:28;26.40;;;16.25;;
73684;SDS011;61985;51.070;14.064;2023-05-06T12:14:56;29.25;;;16.33;;
73684;SDS011;61985;51.070;14.064;2023-05-06T12:17:22;26.50;;;16.63;;
73684;SDS011;61985;51.070;14.064;2023-05-06T12:19:47;28.35;;;16.88;;
73684;SDS011;61985;51.070;14.064;2023-05-06T12:24:44;29.23;;;16.70;;
73684;SDS011;61985;51.070;14.064;2023-05-06T12:27:10;27.13;;;16.63;;
73684;SDS011;61985;51.070;14.064;2023-05-06T12:29:35;33.08;;;16.92;;
73684;SDS011;61985;51.070;14.064;2023-05-06T12:32:10;26.00;;;16.80;;
73684;SDS011;61985;51.070;14.064;2023-05-06T12:34:38;27.83;;;15.90;;
73684;SDS011;61985;51.070;14.064;2023-05-06T12:37:06;24.88;;;15.88;;
73684;SDS011;61985;51.070;14.064;2023-05-06T12:39:36;28.63;;;16.25;;
73684;SDS011;61985;51.070;14.064;2023-05-06T12:42:02;25.55;;;15.30;;
73684;SDS011;61985;51.070;14.064;2023-05-06T12:44:33;26.63;;;16.02;;
73684;SDS011;61985;51.070;14.064;2023-05-06T12:47:17;21.25;;;14.10;;
73684;SDS011;61985;51.070;14.064;2023-05-06T12:52:13;22.00;;;14.10;;
73684;SDS011;61985;51.070;14.064;2023-05-06T12:54:39;21.00;;;13.40;;
73684;SDS011;61985;51.070;14.064;2023-05-06T12:57:05;20.25;;;12.43;;
73684;SDS011;61985;51.070;14.064;2023-05-06T12:59:31;23.35;;;12.10;;
73684;SDS011;61985;51.070;14.064;2023-05-06T13:01:57;19.70;;;12.23;;
73684;SDS011;61985;51.070;14.064;2023-05-06T13:04:22;18.60;;;11.95;;
73684;SDS011;61985;51.070;14.064;2023-05-06T13:06:49;18.27;;;11.63;;
73684;SDS011;61985;51.070;14.064;2023-05-06T13:09:15;18.90;;;11.60;;
73684;SDS011;61985;51.070;14.064;2023-05-06T13:11:40;19.52;;;11.48;;
73684;SDS011;61985;51.070;14.064;2023-05-06T13:14:06;20.27;;;12.38;;
73684;SDS011;61985;51.070;14.064;2023-05-06T13:16:31;16.38;;;10.55;;
73684;SDS011;61985;51.070;14.064;2023-05-06T13:18:57;18.33;;;11.43;;
73684;SDS011;61985;51.070;14.064;2023-05-06T13:21:23;17.10;;;11.32;;
73684;SDS011;61985;51.070;14.064;2023-05-06T13:23:48;18.65;;;11.55;;
73684;SDS011;61985;51.070;14.064;2023-05-06T13:26:13;20.67;;;13.20;;
73684;SDS011;61985;51.070;14.064;2023-05-06T13:28:39;19.70;;;11.80;;
73684;SDS011;61985;51.070;14.064;2023-05-06T13:31:05;19.02;;;11.50;;
73684;SDS011;61985;51.070;14.064;2023-05-06T13:33:31;19.02;;;10.73;;
73684;SDS011;61985;51.070;14.064;2023-05-06T13:35:57;19.27;;;11.73;;
73684;SDS011;61985;51.070;14.064;2023-05-06T13:38:22;17.42;;;11.43;;
73684;SDS011;61985;51.070;14.064;2023-05-06T13:40:49;19.60;;;12.13;;
73684;SDS011;61985;51.070;14.064;2023-05-06T13:43:16;20.58;;;12.23;;
73684;SDS011;61985;51.070;14.064;2023-05-06T13:45:42;18.95;;;11.55;;
73684;SDS011;61985;51.070;14.064;2023-05-06T13:48:13;21.10;;;12.25;;
73684;SDS011;61985;51.070;14.064;2023-05-06T13:50:45;22.98;;;12.40;;
73684;SDS011;61985;51.070;14.064;2023-05-06T13:53:11;20.25;;;12.57;;
73684;SDS011;61985;51.070;14.064;2023-05-06T13:55:37;21.05;;;12.48;;
73684;SDS011;61985;51.070;14.064;2023-05-06T13:58:04;18.50;;;11.35;;
73684;SDS011;61985;51.070;14.064;2023-05-06T14:00:30;20.85;;;11.98;;
73684;SDS011;61985;51.070;14.064;2023-05-06T14:02:56;19.65;;;12.23;;
73684;SDS011;61985;51.070;14.064;2023-05-06T14:05:21;18.33;;;10.73;;
73684;SDS011;61985;51.070;14.064;2023-05-06T14:07:46;19.70;;;11.43;;
73684;SDS011;61985;51.070;14.064;2023-05-06T14:10:12;18.73;;;10.77;;
73684;SDS011;61985;51.070;14.064;2023-05-06T14:12:38;21.20;;;11.63;;
73684;SDS011;61985;51.070;14.064;2023-05-06T14:15:07;20.50;;;11.10;;
73684;SDS011;61985;51.070;14.064;2023-05-06T14:17:33;24.42;;;11.77;;
73684;SDS011;61985;51.070;14.064;2023-05-06T14:19:59;19.65;;;10.38;;
73684;SDS011;61985;51.070;14.064;2023-05-06T14:22:24;18.48;;;10.57;;
73684;SDS011;61985;51.070;14.064;2023-05-06T14:24:51;15.68;;;10.38;;
73684;SDS011;61985;51.070;14.064;2023-05-06T14:27:17;18.38;;;10.93;;
73684;SDS011;61985;51.070;14.064;2023-05-06T14:29:42;21.17;;;11.60;;
73684;SDS011;61985;51.070;14.064;2023-05-06T14:32:09;20.38;;;11.25;;
73684;SDS011;61985;51.070;14.064;2023-05-06T14:34:35;18.33;;;10.77;;
73684;SDS011;61985;51.070;14.064;2023-05-06T14:37:01;18.25;;;10.63;;
73684;SDS011;61985;51.070;14.064;2023-05-06T14:39:26;20.42;;;11.45;;
73684;SDS011;61985;51.070;14.064;2023-05-06T14:41:51;17.58;;;10.50;;
73684;SDS011;61985;51.070;14.064;2023-05-06T14:44:17;22.00;;;10.80;;
73684;SDS011;61985;51.070;14.064;2023-05-06T14:46:42;20.27;;;11.52;;
73684;SDS011;61985;51.070;14.064;2023-05-06T14:49:07;20.73;;;12.43;;
73684;SDS011;61985;51.070;14.064;2023-05-06T14:51:33;25.42;;;12.30;;
73684;SDS011;61985;51.070;14.064;2023-05-06T14:53:58;21.92;;;11.60;;
73684;SDS011;61985;51.070;14.064;2023-05-06T14:56:23;24.35;;;12.85;;
73684;SDS011;61985;51.070;14.064;2023-05-06T14:58:49;24.50;;;13.23;;
73684;SDS011;61985;51.070;14.064;2023-05-06T15:01:14;23.02;;;12.23;;
73684;SDS011;61985;51.070;14.064;2023-05-06T15:03:40;20.60;;;11.95;;
73684;SDS011;61985;51.070;14.064;2023-05-06T15:06:05;21.73;;;12.38;;
73684;SDS011;61985;51.070;14.064;2023-05-06T15:08:30;23.65;;;12.07;;
73684;SDS011;61985;51.070;14.064;2023-05-06T15:10:56;27.73;;;13.60;;
73684;SDS011;61985;51.070;14.064;2023-05-06T15:13:21;20.95;;;11.77;;
73684;SDS011;61985;51.070;14.064;2023-05-06T15:15:46;21.35;;;11.77;;
73684;SDS011;61985;51.070;14.064;2023-05-06T15:18:12;23.50;;;11.80;;
73684;SDS011;61985;51.070;14.064;2023-05-06T15:20:37;19.10;;;11.32;;
73684;SDS011;61985;51.070;14.064;2023-05-06T15:23:02;21.73;;;11.25;;
73684;SDS011;61985;51.070;14.064;2023-05-06T15:25:28;21.67;;;11.77;;
73684;SDS011;61985;51.070;14.064;2023-05-06T15:27:54;19.73;;;11.43;;
73684;SDS011;61985;51.070;14.064;2023-05-06T15:30:20;23.15;;;11.55;;
73684;SDS011;61985;51.070;14.064;2023-05-06T15:32:45;18.90;;;10.77;;
73684;SDS011;61985;51.070;14.064;2023-05-06T15:35:12;21.52;;;10.70;;
73684;SDS011;61985;51.070;14.064;2023-05-06T15:37:38;22.45;;;10.90;;
73684;SDS011;61985;51.070;14.064;2023-05-06T15:40:06;20.83;;;11.07;;
73684;SDS011;61985;51.070;14.064;2023-05-06T15:42:33;20.50;;;11.52;;
73684;SDS011;61985;51.070;14.064;2023-05-06T15:45:02;22.73;;;11.32;;
73684;SDS011;61985;51.070;14.064;2023-05-06T15:47:28;21.35;;;10.68;;
73684;SDS011;61985;51.070;14.064;2023-05-06T15:49:54;20.60;;;10.45;;
73684;SDS011;61985;51.070;14.064;2023-05-06T15:52:20;21.35;;;11.10;;
73684;SDS011;61985;51.070;14.064;2023-05-06T15:54:46;22.33;;;11.43;;
73684;SDS011;61985;51.070;14.064;2023-05-06T15:57:11;20.38;;;10.85;;
73684;SDS011;61985;51.070;14.064;2023-05-06T15:59:37;19.30;;;10.80;;
73684;SDS011;61985;51.070;14.064;2023-05-06T16:02:05;22.38;;;11.07;;
73684;SDS011;61985;51.070;14.064;2023-05-06T16:04:31;19.38;;;11.10;;
73684;SDS011;61985;51.070;14.064;2023-05-06T16:06:56;23.25;;;11.15;;
73684;SDS011;61985;51.070;14.064;2023-05-06T16:09:21;21.15;;;10.98;;
73684;SDS011;61985;51.070;14.064;2023-05-06T16:11:47;20.33;;;11.07;;
73684;SDS011;61985;51.070;14.064;2023-05-06T16:14:12;16.20;;;9.80;;
73684;SDS011;61985;51.070;14.064;2023-05-06T16:16:38;22.75;;;10.63;;
73684;SDS011;61985;51.070;14.064;2023-05-06T16:19:03;20.30;;;10.00;;
73684;SDS011;61985;51.070;14.064;2023-05-06T16:21:28;20.42;;;10.63;;
73684;SDS011;61985;51.070;14.064;2023-05-06T16:23:54;21.13;;;10.73;;
73684;SDS011;61985;51.070;14.064;2023-05-06T16:26:19;24.80;;;13.05;;
73684;SDS011;61985;51.070;14.064;2023-05-06T16:28:44;26.13;;;13.30;;
73684;SDS011;61985;51.070;14.064;2023-05-06T16:31:10;22.08;;;11.98;;
73684;SDS011;61985;51.070;14.064;2023-05-06T16:33:35;26.63;;;12.90;;
73684;SDS011;61985;51.070;14.064;2023-05-06T16:36:01;25.42;;;12.88;;
73684;SDS011;61985;51.070;14.064;2023-05-06T16:38:27;25.77;;;14.02;;
73684;SDS011;61985;51.070;14.064;2023-05-06T16:40:52;28.80;;;14.70;;
73684;SDS011;61985;51.070;14.064;2023-05-06T16:43:17;22.65;;;13.07;;
73684;SDS011;61985;51.070;14.064;2023-05-06T16:45:43;27.30;;;13.63;;
73684;SDS011;61985;51.070;14.064;2023-05-06T16:48:12;26.23;;;14.20;;
73684;SDS011;61985;51.070;14.064;2023-05-06T16:50:39;24.67;;;13.82;;
73684;SDS011;61985;51.070;14.064;2023-05-06T16:53:05;28.13;;;13.60;;
73684;SDS011;61985;51.070;14.064;2023-05-06T16:55:33;29.08;;;15.43;;
73684;SDS011;61985;51.070;14.064;2023-05-06T16:57:59;27.38;;;14.70;;
73684;SDS011;61985;51.070;14.064;2023-05-06T17:00:28;29.67;;;13.70;;
73684;SDS011;61985;51.070;14.064;2023-05-06T17:02:53;21.50;;;11.38;;
73684;SDS011;61985;51.070;14.064;2023-05-06T17:05:19;23.98;;;13.45;;
73684;SDS011;61985;51.070;14.064;2023-05-06T17:07:44;19.73;;;10.25;;
73684;SDS011;61985;51.070;14.064;2023-05-06T17:10:10;16.15;;;9.43;;
73684;SDS011;61985;51.070;14.064;2023-05-06T17:12:36;19.42;;;10.30;;
73684;SDS011;61985;51.070;14.064;2023-05-06T17:15:02;21.33;;;10.93;;
73684;SDS011;61985;51.070;14.064;2023-05-06T17:17:27;23.45;;;11.55;;
73684;SDS011;61985;51.070;14.064;2023-05-06T17:19:54;21.52;;;10.70;;
73684;SDS011;61985;51.070;14.064;2023-05-06T17:22:21;18.15;;;10.95;;
73684;SDS011;61985;51.070;14.064;2023-05-06T17:24:46;17.60;;;10.13;;
73684;SDS011;61985;51.070;14.064;2023-05-06T17:27:13;19.60;;;10.25;;
73684;SDS011;61985;51.070;14.064;2023-05-06T17:29:38;18.48;;;9.82;;
73684;SDS011;61985;51.070;14.064;2023-05-06T17:32:03;18.00;;;9.52;;
73684;SDS011;61985;51.070;14.064;2023-05-06T17:34:29;16.02;;;9.35;;
73684;SDS011;61985;51.070;14.064;2023-05-06T17:36:54;17.35;;;9.18;;
73684;SDS011;61985;51.070;14.064;2023-05-06T17:39:20;19.30;;;9.43;;
73684;SDS011;61985;51.070;14.064;2023-05-06T17:41:45;18.65;;;10.05;;